Terminal Aerodrome Forecast
Issued by NWS Los Angeles, CA

Home | Current Version | Previous Version | Text Only | Print | Product List | Glossary On
Versions: 1 2 3 4 5 6 7 8 9 10 11 12 13 14 15 16 17 18 19 20 21 22 23 24 25
225
FTUS46 KLOX 251131
TAFSMX
TAF
KSMX 251131Z 2512/2612 VRB03KT P6SM OVC021
     FM251700 30006KT P6SM OVC025
     FM252100 31015KT P6SM SCT030 BKN040
     FM260200 30012KT P6SM BKN020 OVC030
     FM260600 31005KT P6SM BKN015 OVC025
     FM260900 VRB03KT P6SM OVC015=

USA.gov is the U.S. government's official web portal to all federal, state and local government web resources and services.